createdAt,value
2022-10-19T00:01:55.756Z,9.78
2022-10-19T00:04:58.908Z,9.78
2022-10-19T00:08:02.016Z,9.80
2022-10-19T00:11:03.670Z,9.76
2022-10-19T00:14:07.608Z,9.76
2022-10-19T00:17:09.133Z,9.75
2022-10-19T00:20:12.812Z,9.70
2022-10-19T00:23:14.552Z,9.71
2022-10-19T00:26:16.160Z,9.63
2022-10-19T00:29:18.013Z,9.48
2022-10-19T00:32:19.650Z,9.40
2022-10-19T00:35:22.750Z,9.30
2022-10-19T00:38:24.637Z,9.21
2022-10-19T00:41:28.026Z,9.21
2022-10-19T00:44:48.668Z,9.17
2022-10-19T00:47:51.015Z,9.16
2022-10-19T00:50:55.782Z,9.13
2022-10-19T00:53:57.719Z,9.08
2022-10-19T00:56:59.945Z,9.11
2022-10-19T01:00:03.161Z,9.21
2022-10-19T01:03:05.147Z,9.25
2022-10-19T01:06:08.391Z,9.36
2022-10-19T01:09:09.899Z,9.46
2022-10-19T01:12:18.684Z,9.53
2022-10-19T01:15:26.185Z,9.57
2022-10-19T01:18:33.060Z,9.59
2022-10-19T01:21:39.566Z,9.63
2022-10-19T01:28:12.015Z,9.54
2022-10-19T01:31:21.557Z,9.47
2022-10-19T01:34:26.174Z,9.43
2022-10-19T01:37:30.559Z,9.41
2022-10-19T01:40:38.494Z,9.41
2022-10-19T01:43:41.853Z,9.37
2022-10-19T01:46:48.725Z,9.34
2022-10-19T01:49:54.511Z,9.28
2022-10-19T01:52:56.857Z,9.26
2022-10-19T01:56:00.013Z,9.22
2022-10-19T01:59:04.198Z,9.18
2022-10-19T02:02:08.980Z,9.20
2022-10-19T02:05:11.372Z,9.14
2022-10-19T02:08:17.718Z,9.09
2022-10-19T02:11:20.019Z,9.09
2022-10-19T02:14:22.702Z,9.04
2022-10-19T02:17:27.399Z,8.99
2022-10-19T02:20:29.666Z,8.95
2022-10-19T02:23:31.388Z,8.91
2022-10-19T02:26:33.168Z,8.90
2022-10-19T02:29:36.950Z,8.90
2022-10-19T02:32:40.067Z,8.85
2022-10-19T02:35:42.448Z,8.82
2022-10-19T02:38:44.363Z,8.78
2022-10-19T02:41:49.415Z,8.79
2022-10-19T02:44:58.484Z,8.77
2022-10-19T02:48:04.940Z,8.72
2022-10-19T02:51:06.574Z,8.70
2022-10-19T02:54:08.608Z,8.68
2022-10-19T02:57:14.835Z,8.65
2022-10-19T03:00:16.429Z,8.64
2022-10-19T03:03:19.472Z,8.64
2022-10-19T03:06:21.044Z,8.65
2022-10-19T03:09:22.635Z,8.67
2022-10-19T03:12:24.161Z,8.69
2022-10-19T03:15:29.082Z,8.75
2022-10-19T03:18:32.071Z,8.74
2022-10-19T03:21:34.262Z,8.75
2022-10-19T03:24:35.808Z,8.76
2022-10-19T03:27:37.435Z,8.75
2022-10-19T03:30:39.006Z,8.76
2022-10-19T03:33:42.689Z,8.78
2022-10-19T03:36:44.283Z,8.80
2022-10-19T03:39:46.461Z,8.82
2022-10-19T03:42:48.064Z,8.84
2022-10-19T03:45:49.623Z,8.85
2022-10-19T03:48:52.613Z,8.85
2022-10-19T03:51:54.282Z,8.84
2022-10-19T03:54:56.053Z,8.87
2022-10-19T03:57:58.083Z,8.88
2022-10-19T04:01:00.071Z,8.88
2022-10-19T04:04:04.209Z,8.90
2022-10-19T04:07:05.886Z,8.88
2022-10-19T04:10:08.154Z,8.92
2022-10-19T04:13:09.684Z,8.96
2022-10-19T04:16:13.538Z,8.95
2022-10-19T04:19:16.811Z,8.96
2022-10-19T04:22:18.356Z,8.94
2022-10-19T04:25:19.966Z,8.92
2022-10-19T04:28:21.618Z,8.88
2022-10-19T04:31:23.202Z,8.86
2022-10-19T04:34:26.609Z,8.85
2022-10-19T04:37:28.399Z,8.92
2022-10-19T04:40:30.130Z,8.98
2022-10-19T04:43:31.782Z,9.02
2022-10-19T04:46:34.113Z,9.05
2022-10-19T04:49:37.297Z,9.05
2022-10-19T04:52:39.461Z,9.03
2022-10-19T04:55:41.225Z,9.04
2022-10-19T04:58:42.850Z,9.02
2022-10-19T05:01:47.242Z,9.00
2022-10-19T05:04:50.628Z,9.00
2022-10-19T05:07:52.376Z,8.99
2022-10-19T05:10:53.939Z,8.99
2022-10-19T05:13:56.050Z,8.97
2022-10-19T05:16:57.583Z,8.95
2022-10-19T05:20:00.686Z,8.98
2022-10-19T05:23:06.250Z,8.94
2022-10-19T05:26:10.379Z,8.91
2022-10-19T05:29:13.012Z,8.80
2022-10-19T05:32:14.559Z,8.75
2022-10-19T05:35:20.091Z,8.82
2022-10-19T05:38:24.043Z,8.83
2022-10-19T05:41:26.609Z,8.80
2022-10-19T05:44:28.366Z,8.83
2022-10-19T05:47:31.120Z,8.88
2022-10-19T05:50:34.570Z,8.91
2022-10-19T05:53:36.123Z,8.90
2022-10-19T05:56:38.040Z,8.96
2022-10-19T05:59:39.784Z,8.98
2022-10-19T06:02:41.266Z,8.97
2022-10-19T06:05:44.367Z,8.86
2022-10-19T06:08:46.162Z,8.81
2022-10-19T06:11:48.037Z,8.81
2022-10-19T06:14:50.940Z,8.83
2022-10-19T06:17:54.730Z,8.87
2022-10-19T06:21:01.654Z,8.89
2022-10-19T06:24:04.830Z,8.92
2022-10-19T06:27:07.181Z,8.90
2022-10-19T06:30:09.236Z,8.85
2022-10-19T06:33:10.841Z,8.82
2022-10-19T06:36:14.845Z,8.81
2022-10-19T06:39:16.733Z,8.80
2022-10-19T06:42:18.315Z,8.83
2022-10-19T06:45:20.026Z,8.88
2022-10-19T06:48:21.688Z,8.95
2022-10-19T06:51:26.214Z,9.04
2022-10-19T06:54:28.003Z,9.11
2022-10-19T06:57:29.737Z,9.17
2022-10-19T07:00:31.543Z,9.19
2022-10-19T07:03:33.262Z,9.23
2022-10-19T07:06:36.328Z,9.22
2022-10-19T07:09:38.401Z,9.30
2022-10-19T07:12:40.121Z,9.32
2022-10-19T07:15:41.816Z,9.34
2022-10-19T07:18:43.331Z,9.36
2022-10-19T07:21:46.596Z,9.37
2022-10-19T07:24:48.392Z,9.39
2022-10-19T07:27:50.224Z,9.41
2022-10-19T07:30:51.925Z,9.42
2022-10-19T07:33:53.903Z,9.44
2022-10-19T07:36:57.670Z,9.48
2022-10-19T07:39:59.484Z,9.48
2022-10-19T07:43:01.214Z,9.47
2022-10-19T07:46:05.908Z,9.49
2022-10-19T07:49:09.819Z,9.56
2022-10-19T07:52:13.022Z,9.62
2022-10-19T07:55:14.747Z,9.68
2022-10-19T07:58:16.367Z,9.66
2022-10-19T08:01:19.242Z,9.68
2022-10-19T08:07:43.950Z,9.81
2022-10-19T08:10:45.716Z,9.85
2022-10-19T08:13:47.514Z,9.93
2022-10-19T08:16:49.322Z,9.96
2022-10-19T08:19:50.986Z,9.97
2022-10-19T08:22:57.941Z,10.01
2022-10-19T08:26:00.698Z,10.04
2022-10-19T08:29:03.169Z,10.07
2022-10-19T08:32:05.175Z,10.04
2022-10-19T08:35:10.024Z,10.04
2022-10-19T08:38:13.954Z,10.12
2022-10-19T08:41:21.464Z,10.16
2022-10-19T08:44:41.072Z,10.14
2022-10-19T08:47:48.388Z,10.18
2022-10-19T08:50:50.211Z,10.18
2022-10-19T08:53:55.672Z,10.14
2022-10-19T08:57:02.147Z,10.17
2022-10-19T09:00:06.846Z,10.32
2022-10-19T09:03:27.182Z,10.35
2022-10-19T09:06:48.433Z,10.42
2022-10-19T09:09:54.225Z,10.45
2022-10-19T09:12:59.395Z,10.45
2022-10-19T09:16:01.286Z,10.51
2022-10-19T09:19:03.374Z,10.59
2022-10-19T09:22:07.940Z,10.68
2022-10-19T09:25:13.605Z,10.72
2022-10-19T09:28:21.863Z,10.70
2022-10-19T09:31:30.399Z,10.73
2022-10-19T09:34:35.548Z,10.70
2022-10-19T09:37:39.678Z,10.69
2022-10-19T09:40:42.890Z,10.66
2022-10-19T09:43:50.894Z,10.76
2022-10-19T09:46:55.513Z,10.74
2022-10-19T09:50:06.351Z,10.73
2022-10-19T09:53:18.228Z,10.74
2022-10-19T09:56:22.239Z,10.69
2022-10-19T09:59:24.861Z,10.72
2022-10-19T10:02:30.792Z,10.66
2022-10-19T10:05:33.233Z,10.70
2022-10-19T10:08:39.523Z,10.81
2022-10-19T10:11:44.086Z,10.96
2022-10-19T10:14:46.383Z,11.09
2022-10-19T10:17:48.917Z,11.18
2022-10-19T10:21:01.450Z,11.21
2022-10-19T10:24:05.857Z,11.21
2022-10-19T10:27:24.676Z,11.20
2022-10-19T10:30:27.112Z,11.11
2022-10-19T10:33:45.598Z,11.11
2022-10-19T10:36:50.394Z,11.09
2022-10-19T10:39:53.562Z,11.08
2022-10-19T10:42:58.106Z,11.08
2022-10-19T10:46:03.886Z,11.01
2022-10-19T10:49:06.851Z,10.99
2022-10-19T10:52:12.645Z,11.01
2022-10-19T10:55:16.812Z,11.02
2022-10-19T10:58:24.306Z,10.94
2022-10-19T11:01:29.505Z,10.91
2022-10-19T11:04:35.728Z,10.94
2022-10-19T11:07:40.596Z,10.96
2022-10-19T11:10:46.448Z,10.98
2022-10-19T11:13:51.702Z,10.90
2022-10-19T11:16:55.269Z,10.96
2022-10-19T11:19:57.008Z,10.94
2022-10-19T11:23:02.280Z,10.93
2022-10-19T11:26:12.675Z,11.00
2022-10-19T11:29:29.274Z,11.04
2022-10-19T11:32:36.005Z,11.02
2022-10-19T11:35:49.826Z,10.99
2022-10-19T11:38:58.915Z,10.96
2022-10-19T11:42:06.806Z,10.96
2022-10-19T11:45:16.062Z,11.00
2022-10-19T11:48:25.419Z,10.95
2022-10-19T11:51:33.182Z,11.05
2022-10-19T11:54:43.278Z,11.10
2022-10-19T11:57:50.138Z,11.09
2022-10-19T12:00:56.895Z,11.15
2022-10-19T12:04:03.646Z,11.14
2022-10-19T12:07:13.918Z,11.12
2022-10-19T12:10:20.872Z,11.09
2022-10-19T12:13:27.314Z,11.07
2022-10-19T12:16:34.444Z,11.10
2022-10-19T12:19:39.233Z,11.20
2022-10-19T12:22:41.290Z,11.20
2022-10-19T12:25:45.041Z,11.18
2022-10-19T12:28:48.956Z,11.19
2022-10-19T12:31:53.441Z,11.19
2022-10-19T12:34:58.067Z,11.19
2022-10-19T12:38:05.606Z,11.21
2022-10-19T12:41:11.028Z,11.17
2022-10-19T12:47:26.141Z,11.14
2022-10-19T12:50:42.591Z,11.11
2022-10-19T12:53:48.513Z,11.09
2022-10-19T12:56:50.959Z,11.13
2022-10-19T13:00:10.656Z,11.13
2022-10-19T13:03:16.128Z,11.10
2022-10-19T13:06:20.274Z,11.11
2022-10-19T13:09:23.664Z,11.08
2022-10-19T13:12:42.137Z,11.12
2022-10-19T13:15:52.638Z,11.14
2022-10-19T13:19:11.939Z,11.16
2022-10-19T13:22:28.533Z,11.11
2022-10-19T13:25:35.309Z,11.07
2022-10-19T13:28:37.900Z,11.09
2022-10-19T13:31:39.817Z,11.31
2022-10-19T13:34:41.407Z,11.43
2022-10-19T13:37:43.401Z,11.47
2022-10-19T13:40:59.809Z,11.49
2022-10-19T13:44:03.147Z,11.46
2022-10-19T13:47:20.060Z,11.39
2022-10-19T13:50:30.192Z,11.36
2022-10-19T13:53:38.086Z,11.38
2022-10-19T13:56:46.341Z,11.42
2022-10-19T14:00:12.233Z,11.43
2022-10-19T14:03:23.913Z,11.44
2022-10-19T14:06:28.849Z,11.39
2022-10-19T14:09:42.168Z,11.22
2022-10-19T14:12:46.091Z,11.14
2022-10-19T14:15:50.419Z,11.08
2022-10-19T14:18:56.034Z,11.00
2022-10-19T14:21:58.804Z,10.90
2022-10-19T14:25:01.857Z,10.83
2022-10-19T14:28:06.831Z,10.80
2022-10-19T14:31:09.759Z,10.73
2022-10-19T14:34:13.431Z,10.69
2022-10-19T14:37:17.272Z,10.67
2022-10-19T14:40:26.821Z,10.66
2022-10-19T14:43:33.412Z,10.72
2022-10-19T14:46:35.787Z,10.78
2022-10-19T14:49:37.643Z,10.84
2022-10-19T14:52:40.300Z,10.86
2022-10-19T14:55:42.881Z,10.89
2022-10-19T14:58:51.707Z,10.89
2022-10-19T15:01:54.904Z,10.92
2022-10-19T15:05:01.619Z,10.93
2022-10-19T15:08:08.768Z,10.99
2022-10-19T15:11:20.855Z,11.01
2022-10-19T15:14:27.060Z,11.03
2022-10-19T15:17:29.529Z,11.01
2022-10-19T15:20:43.872Z,10.96
2022-10-19T15:24:06.742Z,10.89
2022-10-19T15:27:09.687Z,10.82
2022-10-19T15:30:25.612Z,10.74
2022-10-19T15:33:28.295Z,10.66
2022-10-19T15:36:30.737Z,10.60
2022-10-19T15:39:39.877Z,10.54
2022-10-19T15:42:45.531Z,10.45
2022-10-19T15:46:03.829Z,10.43
2022-10-19T15:49:25.625Z,10.38
2022-10-19T15:52:28.142Z,10.31
2022-10-19T15:55:30.556Z,10.24
2022-10-19T15:58:32.659Z,10.20
2022-10-19T16:01:35.994Z,10.14
2022-10-19T16:04:37.615Z,10.03
2022-10-19T16:07:40.098Z,10.00
2022-10-19T16:10:41.667Z,9.91
2022-10-19T16:13:43.205Z,9.85
2022-10-19T16:16:46.018Z,9.79
2022-10-19T16:19:47.812Z,9.76
2022-10-19T16:22:49.352Z,9.69
2022-10-19T16:25:52.879Z,9.67
2022-10-19T16:28:55.092Z,9.62
2022-10-19T16:31:57.987Z,9.57
2022-10-19T16:35:01.770Z,9.53
2022-10-19T16:38:03.427Z,9.46
2022-10-19T16:41:06.148Z,9.42
2022-10-19T16:44:07.577Z,9.36
2022-10-19T16:47:10.665Z,9.35
2022-10-19T16:50:12.515Z,9.35
2022-10-19T16:53:14.332Z,9.32
2022-10-19T16:56:15.944Z,9.30
2022-10-19T16:59:18.534Z,9.28
2022-10-19T17:02:22.330Z,9.26
2022-10-19T17:05:24.006Z,9.24
2022-10-19T17:08:37.183Z,9.19
2022-10-19T17:11:46.039Z,9.20
2022-10-19T17:14:47.773Z,9.17
2022-10-19T17:17:50.700Z,9.09
2022-10-19T17:20:52.821Z,9.06
2022-10-19T17:23:56.020Z,9.00
2022-10-19T17:26:58.346Z,9.02
2022-10-19T17:30:00.014Z,8.99
2022-10-19T17:33:03.027Z,8.97
2022-10-19T17:36:10.008Z,8.97
2022-10-19T17:39:17.977Z,8.96
2022-10-19T17:42:19.773Z,8.94
2022-10-19T17:45:21.419Z,8.90
2022-10-19T17:48:24.305Z,8.90
2022-10-19T17:51:27.911Z,8.89
2022-10-19T17:54:29.589Z,8.88
2022-10-19T17:57:34.112Z,8.82
2022-10-19T18:00:35.976Z,8.82
2022-10-19T18:03:41.621Z,8.85
2022-10-19T18:06:43.309Z,8.85
2022-10-19T18:09:44.929Z,8.80
2022-10-19T18:12:46.732Z,8.78
2022-10-19T18:15:48.564Z,8.74
2022-10-19T18:18:53.263Z,8.73
2022-10-19T18:21:54.926Z,8.76
2022-10-19T18:24:56.404Z,8.73
2022-10-19T18:27:57.962Z,8.69
2022-10-19T18:31:04.578Z,8.64
2022-10-19T18:34:08.505Z,8.62
2022-10-19T18:37:10.627Z,8.57
2022-10-19T18:40:12.247Z,8.55
2022-10-19T18:43:13.697Z,8.51
2022-10-19T18:46:18.655Z,8.51
2022-10-19T18:49:24.188Z,8.51
2022-10-19T18:52:25.968Z,8.50
2022-10-19T18:55:27.781Z,8.45
2022-10-19T18:58:31.005Z,8.41
2022-10-19T19:01:32.626Z,8.34
2022-10-19T19:04:35.995Z,8.33
2022-10-19T19:07:38.579Z,8.29
2022-10-19T19:10:40.243Z,8.25
2022-10-19T19:13:42.276Z,8.26
2022-10-19T19:16:44.633Z,8.26
2022-10-19T19:19:47.707Z,8.22
2022-10-19T19:22:49.109Z,8.18
2022-10-19T19:25:50.661Z,8.18
2022-10-19T19:28:52.401Z,8.19
2022-10-19T19:31:54.105Z,8.21
2022-10-19T19:34:57.266Z,8.20
2022-10-19T19:37:58.755Z,8.18
2022-10-19T19:41:03.364Z,8.12
2022-10-19T19:44:05.032Z,8.10
2022-10-19T19:47:09.208Z,8.05
2022-10-19T19:50:12.076Z,8.09
2022-10-19T19:53:13.562Z,8.07
2022-10-19T19:56:15.853Z,8.03
2022-10-19T19:59:17.404Z,8.03
2022-10-19T20:02:18.945Z,8.00
2022-10-19T20:05:22.488Z,8.03
2022-10-19T20:08:24.140Z,8.05
2022-10-19T20:11:27.106Z,8.02
2022-10-19T20:14:28.747Z,7.99
2022-10-19T20:17:30.288Z,7.99
2022-10-19T20:20:33.564Z,7.92
2022-10-19T20:23:35.157Z,7.93
2022-10-19T20:26:36.695Z,7.92
2022-10-19T20:29:40.418Z,7.89
2022-10-19T20:32:41.908Z,7.89
2022-10-19T20:35:47.162Z,7.83
2022-10-19T20:38:50.002Z,7.78
2022-10-19T20:41:51.661Z,7.76
2022-10-19T20:45:03.586Z,7.73
2022-10-19T20:48:05.388Z,7.70
2022-10-19T20:51:13.132Z,7.67
2022-10-19T20:54:15.768Z,7.60
2022-10-19T20:57:17.360Z,7.53
2022-10-19T21:00:19.020Z,7.52
2022-10-19T21:03:21.920Z,7.54
2022-10-19T21:06:25.207Z,7.49
2022-10-19T21:09:29.506Z,7.41
2022-10-19T21:12:31.188Z,7.38
2022-10-19T21:15:34.999Z,7.36
2022-10-19T21:18:36.697Z,7.32
2022-10-19T21:21:40.877Z,7.25
2022-10-19T21:24:42.611Z,7.27
2022-10-19T21:27:44.096Z,7.29
2022-10-19T21:30:45.644Z,7.30
2022-10-19T21:33:47.353Z,7.27
2022-10-19T21:36:50.426Z,7.29
2022-10-19T21:39:51.919Z,7.29
2022-10-19T21:42:53.526Z,7.25
2022-10-19T21:45:55.112Z,7.23
2022-10-19T21:48:57.144Z,7.23
2022-10-19T21:52:00.084Z,7.15
2022-10-19T21:55:01.730Z,7.13
2022-10-19T21:58:03.802Z,7.15
2022-10-19T22:01:05.801Z,7.17
2022-10-19T22:04:08.261Z,7.15
2022-10-19T22:07:11.322Z,7.13
2022-10-19T22:10:13.386Z,7.11
2022-10-19T22:13:15.152Z,7.08
2022-10-19T22:16:18.244Z,7.07
2022-10-19T22:19:19.977Z,6.98
2022-10-19T22:22:25.873Z,6.94
2022-10-19T22:25:28.962Z,6.93
2022-10-19T22:28:30.784Z,6.88
2022-10-19T22:31:33.110Z,6.89
2022-10-19T22:34:34.913Z,6.94
2022-10-19T22:37:38.423Z,6.97
2022-10-19T22:40:40.017Z,7.03
2022-10-19T22:43:41.588Z,7.03
2022-10-19T22:46:43.352Z,7.01
2022-10-19T22:49:44.950Z,7.02
2022-10-19T22:52:48.046Z,7.02
2022-10-19T22:55:49.832Z,6.99
2022-10-19T22:58:51.576Z,6.98
2022-10-19T23:01:53.145Z,6.97
2022-10-19T23:04:54.815Z,6.98
2022-10-19T23:07:57.795Z,6.95
2022-10-19T23:10:59.329Z,6.93
2022-10-19T23:14:04.073Z,6.91
2022-10-19T23:17:05.624Z,6.88
2022-10-19T23:20:07.908Z,6.89
2022-10-19T23:23:13.465Z,6.85
2022-10-19T23:26:16.260Z,6.85
2022-10-19T23:29:18.024Z,6.82
2022-10-19T23:32:19.646Z,6.83
2022-10-19T23:35:21.180Z,6.81
2022-10-19T23:38:24.211Z,6.76
2022-10-19T23:41:25.759Z,6.77
2022-10-19T23:44:27.504Z,6.76
2022-10-19T23:47:28.938Z,6.75
2022-10-19T23:50:30.440Z,6.72
2022-10-19T23:53:37.073Z,6.75
2022-10-19T23:56:43.904Z,6.77
2022-10-19T23:59:45.614Z,6.77
